Time;durP1;ratioP1;P1;durP2;ratioP2;P2;SDS_P1;SDS_P2;PMS_P1;PMS_P2;Temp;Humidity;BMP_temperature;BMP_pressure;BME280_temperature;BME280_humidity;BME280_pressure;Samples;Min_cycle;Max_cycle;Signal;HPM_P1;HPM_P2
2022/12/04 00:01:08;;;;;;;2.47;2.38;;;1.40;99.90;;;;;;5066352;28;20627;-76
2022/12/04 00:03:35;;;;;;;0.50;0.45;;;1.40;99.90;;;;;;5062255;28;20223;-75
2022/12/04 00:06:09;;;;;;;11.07;4.50;;;1.40;99.90;;;;;;5058101;28;20643;-75
2022/12/04 00:08:36;;;;;;;1.45;1.40;;;1.30;99.90;;;;;;5059742;28;20198;-76
2022/12/04 00:11:03;;;;;;;2.35;2.15;;;1.40;99.90;;;;;;5060627;28;20557;-75
2022/12/04 00:13:30;;;;;;;12.95;5.55;;;1.40;99.90;;;;;;5059539;28;20201;-76
2022/12/04 00:15:58;;;;;;;6.25;4.93;;;1.40;99.90;;;;;;5060382;28;20196;-76
2022/12/04 00:18:25;;;;;;;4.05;1.50;;;1.40;99.90;;;;;;5054408;28;20678;-74
2022/12/04 00:20:51;;;;;;;4.18;2.70;;;1.40;99.90;;;;;;5054595;28;20193;-76
2022/12/04 00:23:20;;;;;;;6.38;3.28;;;1.40;99.90;;;;;;5058107;28;20682;-76
2022/12/04 00:25:47;;;;;;;0.90;0.90;;;1.30;99.90;;;;;;5056319;28;20197;-76
2022/12/04 00:28:15;;;;;;;2.40;2.20;;;1.40;99.90;;;;;;5057003;28;20197;-76
2022/12/04 00:30:42;;;;;;;1.15;1.15;;;1.30;99.90;;;;;;5061107;28;20211;-76
2022/12/04 00:33:09;;;;;;;3.22;3.05;;;1.30;99.90;;;;;;5062200;28;20201;-76
2022/12/04 00:35:36;;;;;;;9.20;4.50;;;1.30;99.90;;;;;;5058123;28;20312;-76
2022/12/04 00:38:04;;;;;;;0.50;0.40;;;1.30;99.90;;;;;;5057158;28;20217;-77
2022/12/04 00:40:32;;;;;;;1.52;1.15;;;1.40;99.90;;;;;;5057669;28;20204;-76
2022/12/04 00:42:59;;;;;;;0.50;0.47;;;1.40;99.90;;;;;;5061665;28;20194;-76
2022/12/04 00:45:26;;;;;;;6.07;2.88;;;1.40;99.90;;;;;;5057595;28;20591;-76
2022/12/04 00:47:52;;;;;;;0.50;0.40;;;1.40;99.90;;;;;;5058818;28;20293;-76
2022/12/04 00:50:19;;;;;;;5.22;3.22;;;1.30;99.90;;;;;;5057525;28;20236;-76
2022/12/04 00:52:46;;;;;;;3.63;2.25;;;1.30;99.90;;;;;;5058750;28;20288;-76
2022/12/04 00:55:13;;;;;;;1.30;0.75;;;1.30;99.90;;;;;;5063954;28;20220;-75
2022/12/04 00:57:41;;;;;;;2.67;2.47;;;1.30;99.90;;;;;;5059384;28;20287;-76
2022/12/04 01:00:09;;;;;;;0.60;0.60;;;1.30;99.90;;;;;;5055028;28;20192;-76
2022/12/04 01:02:36;;;;;;;2.15;1.92;;;1.40;99.90;;;;;;5057513;28;20220;-75
2022/12/04 01:05:03;;;;;;;2.03;1.92;;;1.40;99.90;;;;;;5057215;28;20223;-76
2022/12/04 01:07:30;;;;;;;2.67;1.60;;;1.30;99.90;;;;;;5061579;28;20288;-76
2022/12/04 01:09:57;;;;;;;1.00;0.90;;;1.30;99.90;;;;;;5058977;28;20741;-76
2022/12/04 01:12:24;;;;;;;4.75;2.58;;;1.30;99.90;;;;;;5058385;28;20210;-76
2022/12/04 01:14:52;;;;;;;5.55;4.70;;;1.40;99.90;;;;;;5062600;28;20219;-76
2022/12/04 01:17:19;;;;;;;0.50;0.40;;;1.40;99.90;;;;;;5062976;28;20197;-76
2022/12/04 01:19:46;;;;;;;0.68;0.68;;;1.40;99.90;;;;;;5059475;28;20193;-76
2022/12/04 01:22:12;;;;;;;1.42;0.90;;;1.40;99.90;;;;;;5061867;28;20201;-76
2022/12/04 01:24:39;;;;;;;1.08;0.85;;;1.50;99.90;;;;;;5059320;28;20552;-76
2022/12/04 01:27:06;;;;;;;0.50;0.50;;;1.40;99.90;;;;;;5058081;28;20686;-76
2022/12/04 01:29:33;;;;;;;0.57;0.57;;;1.40;99.90;;;;;;5056363;28;20308;-76
2022/12/04 01:32:01;;;;;;;0.93;0.93;;;1.40;99.90;;;;;;5061546;28;20231;-76
2022/12/04 01:34:28;;;;;;;7.20;4.50;;;1.40;99.90;;;;;;5058888;28;20225;-76
2022/12/04 01:36:55;;;;;;;1.45;1.35;;;1.50;99.90;;;;;;5061180;28;20203;-76
2022/12/04 01:39:22;;;;;;;1.23;1.13;;;1.50;99.90;;;;;;5061604;28;20428;-76
2022/12/04 01:41:49;;;;;;;23.92;22.65;;;1.50;99.90;;;;;;5064647;28;20552;-76
2022/12/04 01:44:18;;;;;;;0.50;0.40;;;1.40;99.90;;;;;;5060505;28;20581;-76
2022/12/04 01:46:46;;;;;;;1.80;1.75;;;1.30;99.90;;;;;;5059580;28;20211;-76
2022/12/04 01:49:17;;;;;;;1.30;1.30;;;1.40;99.90;;;;;;5062891;28;20650;-77
2022/12/04 01:51:48;;;;;;;3.55;2.45;;;1.40;99.90;;;;;;5063224;28;20229;-76
2022/12/04 01:54:20;;;;;;;4.05;3.22;;;1.40;99.90;;;;;;5061475;28;20228;-76
2022/12/04 01:56:52;;;;;;;2.75;2.65;;;1.30;99.90;;;;;;5064731;28;20295;-76
2022/12/04 01:59:23;;;;;;;3.72;1.40;;;1.40;99.90;;;;;;5063298;28;20201;-76
2022/12/04 02:01:56;;;;;;;1.08;0.82;;;1.40;99.90;;;;;;5065748;28;20293;-76
2022/12/04 02:04:24;;;;;;;2.35;2.25;;;1.40;99.90;;;;;;5063150;28;20214;-76
2022/12/04 02:06:51;;;;;;;2.45;2.28;;;1.40;99.90;;;;;;5060293;28;20194;-76
2022/12/04 02:09:20;;;;;;;0.60;0.60;;;1.40;99.90;;;;;;5062512;28;20212;-76
2022/12/04 02:11:52;;;;;;;0.50;0.50;;;1.30;99.90;;;;;;5063772;28;20222;-76
2022/12/04 02:14:30;;;;;;;0.70;0.70;;;1.30;99.90;;;;;;5063642;28;20217;-76
2022/12/04 02:17:06;;;;;;;6.43;3.10;;;1.40;99.90;;;;;;5068352;28;20203;-76
2022/12/04 02:19:50;;;;;;;0.50;0.50;;;1.30;99.90;;;;;;5060721;28;20213;-76
2022/12/04 02:22:28;;;;;;;0.50;0.40;;;1.30;99.90;;;;;;5060532;28;20200;-76
2022/12/04 02:25:00;;;;;;;0.60;0.50;;;1.30;99.90;;;;;;5064521;28;20559;-76
2022/12/04 02:27:52;;;;;;;0.50;0.50;;;1.30;99.90;;;;;;5061223;28;20197;-75
2022/12/04 02:30:19;;;;;;;0.50;0.43;;;1.20;99.90;;;;;;5065615;28;20278;-76
2022/12/04 02:32:51;;;;;;;2.45;1.85;;;1.20;99.90;;;;;;5061259;28;20633;-76
2022/12/04 02:35:26;;;;;;;2.25;1.50;;;1.20;99.90;;;;;;5060670;28;20237;-76
2022/12/04 02:37:57;;;;;;;18.52;2.30;;;1.20;99.90;;;;;;5061389;28;20224;-75
2022/12/04 02:40:28;;;;;;;1.10;1.10;;;1.20;99.90;;;;;;5061509;28;20193;-76
2022/12/04 02:43:01;;;;;;;2.78;1.77;;;1.20;99.90;;;;;;5059668;28;20196;-76
2022/12/04 02:45:33;;;;;;;7.13;3.38;;;1.20;99.90;;;;;;5061700;28;20679;-76
2022/12/04 02:48:02;;;;;;;2.45;1.90;;;1.20;99.90;;;;;;5062139;28;20611;-76
2022/12/04 02:50:32;;;;;;;0.73;0.73;;;1.30;99.90;;;;;;5062350;28;20348;-75
2022/12/04 02:53:03;;;;;;;2.58;2.38;;;1.20;99.90;;;;;;5064082;28;20201;-76
2022/12/04 02:55:35;;;;;;;0.50;0.40;;;1.30;99.90;;;;;;5058693;28;20213;-75
2022/12/04 02:58:09;;;;;;;0.50;0.40;;;1.10;99.90;;;;;;5060732;28;20278;-76
2022/12/04 03:00:37;;;;;;;1.67;1.58;;;1.20;99.90;;;;;;5059984;28;20204;-76
2022/12/04 03:03:08;;;;;;;1.70;1.60;;;1.20;99.90;;;;;;5061037;28;20208;-76
2022/12/04 03:05:40;;;;;;;4.18;2.20;;;1.20;99.90;;;;;;5057960;28;20304;-76
2022/12/04 03:08:11;;;;;;;0.63;0.63;;;1.20;99.90;;;;;;5064202;28;20214;-76
2022/12/04 03:10:43;;;;;;;2.80;2.05;;;1.20;99.90;;;;;;5059761;28;20201;-76
2022/12/04 03:13:16;;;;;;;0.60;0.60;;;1.30;99.90;;;;;;5062834;28;20240;-76
2022/12/04 03:15:46;;;;;;;2.35;1.40;;;1.20;99.90;;;;;;5062724;28;20239;-76
2022/12/04 03:18:18;;;;;;;1.15;1.15;;;1.20;99.90;;;;;;5059417;28;20757;-76
2022/12/04 03:20:49;;;;;;;0.50;0.50;;;1.30;99.90;;;;;;5060818;28;20187;-76
2022/12/04 03:23:24;;;;;;;3.75;3.53;;;1.20;99.90;;;;;;5063255;28;20229;-76
2022/12/04 03:25:58;;;;;;;2.25;1.10;;;1.20;99.90;;;;;;5057303;28;20197;-75
2022/12/04 03:28:33;;;;;;;6.82;4.95;;;1.20;99.90;;;;;;5064853;28;20289;-75
2022/12/04 03:31:05;;;;;;;0.75;0.75;;;1.20;99.90;;;;;;5060183;28;20295;-76
2022/12/04 03:33:39;;;;;;;0.75;0.75;;;1.20;99.90;;;;;;5064618;28;20292;-76
2022/12/04 03:36:09;;;;;;;3.08;2.88;;;1.30;99.90;;;;;;5059583;28;20225;-76
2022/12/04 03:38:43;;;;;;;0.68;0.68;;;1.20;99.90;;;;;;5058571;28;20208;-76
2022/12/04 03:41:17;;;;;;;0.50;0.40;;;1.20;99.90;;;;;;5062685;28;20709;-76
2022/12/04 03:43:50;;;;;;;1.38;1.27;;;1.20;99.90;;;;;;5059247;28;20627;-75
2022/12/04 03:46:24;;;;;;;0.65;0.65;;;1.20;99.90;;;;;;5059091;28;20674;-76
2022/12/04 03:48:56;;;;;;;0.60;0.40;;;1.20;99.90;;;;;;5057775;28;20196;-76
2022/12/04 03:51:28;;;;;;;1.20;1.10;;;1.30;99.90;;;;;;5061713;28;20248;-76
2022/12/04 03:54:01;;;;;;;0.80;0.77;;;1.30;99.90;;;;;;5062065;28;20216;-76
2022/12/04 03:56:34;;;;;;;0.50;0.40;;;1.20;99.90;;;;;;5061376;28;20284;-76
2022/12/04 03:59:08;;;;;;;0.63;0.63;;;1.20;99.90;;;;;;5061354;28;20284;-76
2022/12/04 04:01:40;;;;;;;0.60;0.60;;;1.10;99.90;;;;;;5058754;28;20182;-76
2022/12/04 04:04:13;;;;;;;1.20;1.13;;;1.10;99.90;;;;;;5057886;28;20415;-76
2022/12/04 04:06:45;;;;;;;0.50;0.50;;;1.10;99.90;;;;;;5059597;28;20591;-76
2022/12/04 04:09:17;;;;;;;2.15;1.70;;;1.10;99.90;;;;;;5056357;28;20225;-76
2022/12/04 04:11:48;;;;;;;5.53;2.08;;;1.10;99.90;;;;;;5060053;28;20221;-76
2022/12/04 04:25:32;;;;;;;3.20;1.75;;;1.00;99.90;;;;;;5060861;28;20266;-76
2022/12/04 04:27:59;;;;;;;0.50;0.40;;;1.00;99.90;;;;;;5060397;28;20280;-76
2022/12/04 04:30:29;;;;;;;0.50;0.40;;;1.10;99.90;;;;;;5058770;28;20197;-77
2022/12/04 04:33:01;;;;;;;0.50;0.50;;;1.10;99.90;;;;;;5059798;28;20193;-76
2022/12/04 04:35:37;;;;;;;0.50;0.40;;;1.10;99.90;;;;;;5057773;28;20312;-76
2022/12/04 04:38:10;;;;;;;2.75;2.55;;;1.10;99.90;;;;;;5056760;28;20193;-76
2022/12/04 04:40:49;;;;;;;0.50;0.43;;;1.10;99.90;;;;;;5058499;28;20196;-76
2022/12/04 04:43:24;;;;;;;0.60;0.40;;;1.20;99.90;;;;;;5058055;28;20189;-76
2022/12/04 04:45:58;;;;;;;0.50;0.50;;;1.10;99.90;;;;;;5058900;28;20196;-76
2022/12/04 04:48:29;;;;;;;0.50;0.50;;;1.10;99.90;;;;;;5058500;28;20199;-76
2022/12/04 04:50:56;;;;;;;4.50;2.78;;;1.20;99.90;;;;;;5062413;28;20307;-76
2022/12/04 04:53:27;;;;;;;4.55;1.58;;;1.20;99.90;;;;;;5059642;28;20191;-76
2022/12/04 04:55:54;;;;;;;1.92;1.83;;;1.20;99.90;;;;;;5059329;28;20219;-75
2022/12/04 04:58:21;;;;;;;0.50;0.40;;;1.20;99.90;;;;;;5063765;28;20697;-76
2022/12/04 05:00:56;;;;;;;0.50;0.50;;;1.20;99.90;;;;;;5062322;28;20299;-76
2022/12/04 05:03:23;;;;;;;8.85;8.30;;;1.20;99.90;;;;;;5055951;28;20202;-75
2022/12/04 05:05:50;;;;;;;0.80;0.80;;;1.20;99.90;;;;;;5061670;28;20244;-76
2022/12/04 05:08:17;;;;;;;2.05;1.90;;;1.20;99.90;;;;;;5060745;28;20204;-77
2022/12/04 05:10:44;;;;;;;1.15;1.15;;;1.20;99.90;;;;;;5058422;28;20197;-76
2022/12/04 05:13:12;;;;;;;0.70;0.70;;;1.30;99.90;;;;;;5061161;28;20632;-76
2022/12/04 05:15:39;;;;;;;0.50;0.40;;;1.40;99.90;;;;;;5055722;28;20310;-76
2022/12/04 05:18:08;;;;;;;0.50;0.50;;;1.30;99.90;;;;;;5058605;28;20211;-76
2022/12/04 05:20:36;;;;;;;2.08;1.48;;;1.30;99.90;;;;;;5058983;28;20206;-76
2022/12/04 05:23:03;;;;;;;0.50;0.50;;;1.30;99.90;;;;;;5061477;28;20200;-76
2022/12/04 05:25:30;;;;;;;0.75;0.73;;;1.30;99.90;;;;;;5057925;28;20232;-76
2022/12/04 05:27:57;;;;;;;2.88;1.95;;;1.30;99.90;;;;;;5062996;28;20564;-76
2022/12/04 05:30:24;;;;;;;0.50;0.50;;;1.30;99.90;;;;;;5062051;28;20227;-76
2022/12/04 05:32:50;;;;;;;1.50;0.80;;;1.30;99.90;;;;;;5065116;28;20224;-76
2022/12/04 05:35:19;;;;;;;0.50;0.50;;;1.20;99.90;;;;;;5059384;28;20706;-76
2022/12/04 05:37:46;;;;;;;0.50;0.50;;;1.20;99.90;;;;;;5058291;28;20296;-76
2022/12/04 05:40:13;;;;;;;3.58;3.35;;;1.30;99.90;;;;;;5057634;28;20202;-75
2022/12/04 05:42:40;;;;;;;4.93;2.75;;;1.30;99.90;;;;;;5065385;28;20199;-76
2022/12/04 05:45:07;;;;;;;0.65;0.63;;;1.40;99.90;;;;;;5060539;28;20221;-76
2022/12/04 05:47:38;;;;;;;0.80;0.80;;;1.40;99.90;;;;;;5061486;28;20250;-76
2022/12/04 05:50:06;;;;;;;2.42;0.75;;;1.30;99.90;;;;;;5063711;28;20194;-76
2022/12/04 05:52:35;;;;;;;0.90;0.90;;;1.30;99.90;;;;;;5064376;28;20217;-74
2022/12/04 05:55:02;;;;;;;0.50;0.50;;;1.30;99.90;;;;;;5060667;28;20217;-76
2022/12/04 05:57:28;;;;;;;1.75;1.67;;;1.30;99.90;;;;;;5065164;28;20200;-75
2022/12/04 05:59:55;;;;;;;3.28;3.13;;;1.40;99.90;;;;;;5065466;28;20198;-76
2022/12/04 06:02:22;;;;;;;0.50;0.50;;;1.30;99.90;;;;;;5066769;28;20190;-76
2022/12/04 06:04:49;;;;;;;2.83;2.65;;;1.30;99.90;;;;;;5060789;28;20703;-76
2022/12/04 06:07:16;;;;;;;2.63;2.40;;;1.30;99.90;;;;;;5060210;28;20203;-76
2022/12/04 06:09:44;;;;;;;2.50;2.40;;;1.40;99.90;;;;;;5061544;28;20203;-76
2022/12/04 06:12:11;;;;;;;12.80;4.00;;;1.40;99.90;;;;;;5056693;28;20219;-76
2022/12/04 06:14:38;;;;;;;0.57;0.55;;;1.40;99.90;;;;;;5056272;28;20221;-76
2022/12/04 06:17:04;;;;;;;0.50;0.40;;;1.40;99.90;;;;;;5059453;28;20290;-76
2022/12/04 06:19:31;;;;;;;3.72;2.75;;;1.40;99.90;;;;;;5060949;28;20202;-75
2022/12/04 06:21:58;;;;;;;0.82;0.80;;;1.40;99.90;;;;;;5066395;28;20193;-76
2022/12/04 06:24:25;;;;;;;2.97;2.83;;;1.40;99.90;;;;;;5123360;22;20455;-76
2022/12/04 06:26:57;;;;;;;0.60;0.60;;;1.50;99.90;;;;;;5009704;28;20215;-81
2022/12/04 06:29:24;;;;;;;2.65;1.83;;;1.50;99.90;;;;;;5012503;28;20296;-80
2022/12/04 06:31:51;;;;;;;2.08;1.98;;;1.40;99.90;;;;;;5010884;28;20213;-79
2022/12/04 06:34:18;;;;;;;3.90;0.98;;;1.40;99.90;;;;;;5007466;28;20196;-80
2022/12/04 06:36:45;;;;;;;6.05;5.07;;;1.30;99.90;;;;;;5007401;28;20219;-82
2022/12/04 06:39:12;;;;;;;5.40;3.05;;;1.40;99.90;;;;;;5002301;28;20196;-80
2022/12/04 06:41:39;;;;;;;0.65;0.65;;;1.40;99.90;;;;;;5007380;28;20212;-82
2022/12/04 06:44:07;;;;;;;0.50;0.50;;;1.30;99.90;;;;;;5000791;28;20204;-80
2022/12/04 06:46:34;;;;;;;2.50;2.10;;;1.40;99.90;;;;;;5006796;28;20223;-79
2022/12/04 06:49:02;;;;;;;3.20;3.00;;;1.30;99.90;;;;;;5010243;28;20630;-81
2022/12/04 06:51:31;;;;;;;2.08;1.63;;;1.30;99.90;;;;;;5003414;28;20211;-79
2022/12/04 06:53:58;;;;;;;0.50;0.50;;;1.30;99.90;;;;;;5003365;28;20196;-81
2022/12/04 06:56:27;;;;;;;2.33;2.00;;;1.30;99.90;;;;;;5008478;28;20219;-81
2022/12/04 06:58:56;;;;;;;4.88;1.30;;;1.20;99.90;;;;;;5006287;28;20202;-82
2022/12/04 07:01:27;;;;;;;1.60;1.50;;;1.30;99.90;;;;;;4998644;28;20650;-81
2022/12/04 07:03:54;;;;;;;2.00;1.90;;;1.30;99.90;;;;;;5006782;28;20238;-82
2022/12/04 07:06:23;;;;;;;0.50;0.50;;;1.30;99.90;;;;;;5005869;28;20294;-80
2022/12/04 07:08:51;;;;;;;2.90;1.20;;;1.30;99.90;;;;;;5005230;28;20540;-80
2022/12/04 07:11:20;;;;;;;0.85;0.85;;;1.30;99.90;;;;;;4999886;28;20622;-80
2022/12/04 07:13:47;;;;;;;0.75;0.75;;;1.30;99.90;;;;;;4994363;28;20255;-76
2022/12/04 07:16:15;;;;;;;0.70;0.70;;;1.30;99.90;;;;;;4993566;28;20220;-78
2022/12/04 07:18:44;;;;;;;1.73;1.63;;;1.30;99.90;;;;;;4977474;28;20211;-77
2022/12/04 07:21:14;;;;;;;1.92;1.85;;;1.40;99.90;;;;;;4993784;28;21570;-78
2022/12/04 07:23:41;;;;;;;0.60;0.50;;;1.40;99.90;;;;;;4997069;28;20693;-77
2022/12/04 07:26:10;;;;;;;1.77;1.63;;;1.40;99.90;;;;;;4996147;28;20235;-80
2022/12/04 07:28:38;;;;;;;2.08;1.88;;;1.30;99.90;;;;;;4996064;28;20192;-78
2022/12/04 07:31:05;;;;;;;3.85;2.25;;;1.30;99.90;;;;;;4983770;28;20295;-80
2022/12/04 07:33:32;;;;;;;4.85;2.78;;;1.30;99.90;;;;;;4995916;28;20219;-78
2022/12/04 07:36:02;;;;;;;2.45;1.80;;;1.30;99.90;;;;;;4998004;28;20211;-78
2022/12/04 07:38:30;;;;;;;1.25;1.15;;;1.30;99.90;;;;;;4999885;28;20200;-77
2022/12/04 07:40:57;;;;;;;2.03;2.00;;;1.30;99.90;;;;;;4994430;28;20199;-77
2022/12/04 07:43:24;;;;;;;1.48;1.38;;;1.30;99.90;;;;;;5002005;28;20731;-79
2022/12/04 07:45:51;;;;;;;0.80;0.60;;;1.30;99.90;;;;;;4998490;28;20225;-78
2022/12/04 07:48:18;;;;;;;7.35;5.72;;;1.30;99.90;;;;;;4997918;28;20324;-78
2022/12/04 07:50:45;;;;;;;2.08;1.35;;;1.30;99.90;;;;;;4995655;28;20689;-79
2022/12/04 07:53:13;;;;;;;2.88;2.63;;;1.30;99.90;;;;;;4997456;28;20216;-78
2022/12/04 07:55:40;;;;;;;2.25;2.15;;;1.30;99.90;;;;;;4995596;28;20223;-79
2022/12/04 07:58:07;;;;;;;3.60;2.15;;;1.40;99.90;;;;;;5001481;28;20198;-78
2022/12/04 08:00:34;;;;;;;0.68;0.65;;;1.40;99.90;;;;;;4992517;28;20294;-78
2022/12/04 08:03:00;;;;;;;9.32;3.45;;;1.40;99.90;;;;;;4998300;28;20198;-78
2022/12/04 08:05:27;;;;;;;0.50;0.50;;;1.40;99.90;;;;;;5002326;28;20757;-78
2022/12/04 08:07:54;;;;;;;0.82;0.82;;;1.30;99.90;;;;;;4998706;28;20264;-77
2022/12/04 08:10:22;;;;;;;1.20;1.10;;;1.40;99.90;;;;;;5000267;28;20220;-78
2022/12/04 08:12:49;;;;;;;0.50;0.40;;;1.40;99.90;;;;;;4997794;28;20693;-79
2022/12/04 08:15:16;;;;;;;0.50;0.40;;;1.50;99.90;;;;;;5001693;28;20225;-79
2022/12/04 08:17:43;;;;;;;7.70;7.03;;;1.50;99.90;;;;;;4996637;28;20655;-78
2022/12/04 08:20:11;;;;;;;0.57;0.57;;;1.50;99.90;;;;;;4996767;28;20195;-77
2022/12/04 08:22:38;;;;;;;1.13;1.02;;;1.50;99.90;;;;;;4998037;28;20315;-79
2022/12/04 08:25:05;;;;;;;1.27;1.27;;;1.50;99.90;;;;;;4996195;28;20232;-77
2022/12/04 08:27:34;;;;;;;0.77;0.77;;;1.60;99.90;;;;;;4998230;28;20203;-80
2022/12/04 08:30:01;;;;;;;16.15;1.67;;;1.50;99.90;;;;;;4999505;28;20607;-81
2022/12/04 08:32:28;;;;;;;0.50;0.47;;;1.60;99.90;;;;;;5000812;28;20307;-83
2022/12/04 08:34:54;;;;;;;1.63;1.52;;;1.60;99.90;;;;;;4996749;28;20323;-79
2022/12/04 08:37:21;;;;;;;0.70;0.70;;;1.60;99.90;;;;;;5002455;28;20213;-77
2022/12/04 08:39:48;;;;;;;0.50;0.40;;;1.70;99.90;;;;;;5003189;28;20627;-80
2022/12/04 08:42:15;;;;;;;0.50;0.50;;;1.70;99.90;;;;;;4997216;28;20203;-78
2022/12/04 08:44:43;;;;;;;0.80;0.80;;;1.70;99.90;;;;;;4999116;28;20219;-78
2022/12/04 08:47:10;;;;;;;0.50;0.50;;;1.70;99.90;;;;;;5001679;28;20551;-78
2022/12/04 08:49:36;;;;;;;0.50;0.50;;;1.70;99.90;;;;;;4992717;28;20288;-80
2022/12/04 08:52:04;;;;;;;2.40;2.20;;;1.80;99.90;;;;;;4994948;28;20704;-78
2022/12/04 08:54:30;;;;;;;2.10;1.33;;;1.80;99.90;;;;;;4978523;28;20292;-80
2022/12/04 08:56:57;;;;;;;8.60;7.20;;;1.80;99.90;;;;;;5000723;28;20191;-78
2022/12/04 08:59:24;;;;;;;1.98;1.88;;;1.90;99.90;;;;;;5001395;28;20202;-80
2022/12/04 09:01:52;;;;;;;0.50;0.50;;;1.90;99.90;;;;;;4999038;28;20195;-79
2022/12/04 09:04:19;;;;;;;9.85;5.32;;;1.90;99.90;;;;;;4999544;28;20204;-76
2022/12/04 09:06:46;;;;;;;2.17;2.05;;;1.80;99.90;;;;;;4993170;28;20874;-77
2022/12/04 09:09:13;;;;;;;2.10;1.90;;;1.80;99.90;;;;;;5004615;28;20199;-77
2022/12/04 09:11:39;;;;;;;0.70;0.70;;;1.80;99.90;;;;;;5003087;28;20198;-77
2022/12/04 09:14:07;;;;;;;0.70;0.70;;;1.80;99.90;;;;;;5003876;28;20223;-78
2022/12/04 09:16:34;;;;;;;1.83;1.73;;;1.80;99.90;;;;;;5002400;28;20231;-81
2022/12/04 09:19:03;;;;;;;1.55;1.45;;;1.90;99.90;;;;;;4998297;28;20197;-80
2022/12/04 09:21:30;;;;;;;13.93;7.80;;;1.90;99.90;;;;;;4997624;28;20224;-78
2022/12/04 09:23:56;;;;;;;3.22;2.10;;;1.90;99.90;;;;;;4998111;28;20577;-83
2022/12/04 09:26:26;;;;;;;3.20;2.90;;;1.90;99.90;;;;;;5000776;28;20219;-75
2022/12/04 09:28:54;;;;;;;1.85;0.93;;;1.80;99.90;;;;;;5000301;28;20563;-82
2022/12/04 09:31:22;;;;;;;23.92;3.45;;;1.80;99.90;;;;;;4999775;28;20687;-80
2022/12/04 09:33:49;;;;;;;1.80;1.70;;;1.90;99.90;;;;;;4993808;28;20239;-79
2022/12/04 09:36:17;;;;;;;1.10;1.10;;;1.90;99.90;;;;;;5001466;28;20299;-78
2022/12/04 09:38:45;;;;;;;0.80;0.65;;;2.00;99.90;;;;;;5007494;28;20227;-78
2022/12/04 09:41:51;;;;;;;2.78;2.42;;;2.00;99.90;;;;;;5002236;28;20279;-79
2022/12/04 09:44:23;;;;;;;3.28;3.08;;;2.00;99.90;;;;;;4973779;28;20659;-78
2022/12/04 09:46:54;;;;;;;1.37;1.03;;;2.00;99.90;;;;;;4653013;28;10000014;-79
2022/12/04 09:49:25;;;;;;;1.23;0.93;;;2.00;99.90;;;;;;4988509;28;20535;-81
2022/12/04 09:51:56;;;;;;;3.83;1.73;;;2.10;99.90;;;;;;4993399;28;20196;-77
2022/12/04 09:54:27;;;;;;;1.30;1.20;;;2.00;99.90;;;;;;4993741;28;20540;-79
2022/12/04 09:56:59;;;;;;;1.08;1.08;;;2.10;99.90;;;;;;4986588;28;20188;-79
2022/12/04 09:59:29;;;;;;;3.63;2.65;;;2.10;99.90;;;;;;4993857;28;20190;-77
2022/12/04 10:02:02;;;;;;;6.38;2.60;;;2.10;99.90;;;;;;4990582;28;20570;-76
2022/12/04 10:04:29;;;;;;;0.70;0.70;;;2.10;99.90;;;;;;4991784;28;20199;-80
2022/12/04 10:07:04;;;;;;;0.52;0.52;;;2.10;99.90;;;;;;4993379;28;20677;-80
2022/12/04 10:09:39;;;;;;;3.53;3.33;;;2.00;99.90;;;;;;4992994;28;20210;-78
2022/12/04 10:12:18;;;;;;;0.50;0.50;;;2.10;99.90;;;;;;4994353;28;20288;-77
2022/12/04 10:15:00;;;;;;;2.60;1.13;;;2.10;99.90;;;;;;4991936;28;20306;-78
2022/12/04 10:17:38;;;;;;;0.50;0.47;;;2.10;99.90;;;;;;4993611;28;20287;-78
2022/12/04 10:20:20;;;;;;;1.65;1.55;;;2.10;99.90;;;;;;4992875;28;20249;-75
2022/12/04 10:23:01;;;;;;;0.98;0.98;;;2.10;99.90;;;;;;4994282;28;20223;-77
2022/12/04 10:25:29;;;;;;;2.30;2.20;;;2.10;99.90;;;;;;4647598;28;10000160;-78
2022/12/04 10:28:02;;;;;;;0.50;0.50;;;2.10;99.90;;;;;;4998474;28;20196;-78
2022/12/04 10:30:32;;;;;;;3.47;3.17;;;2.00;99.90;;;;;;4993590;28;20198;-78
2022/12/04 10:33:04;;;;;;;1.95;1.85;;;2.00;99.90;;;;;;4986029;28;20221;-80
2022/12/04 10:35:34;;;;;;;2.50;2.40;;;2.10;99.90;;;;;;4987626;28;20594;-78
2022/12/04 10:38:06;;;;;;;5.10;4.57;;;2.10;99.90;;;;;;4989727;28;20203;-79
2022/12/04 10:40:37;;;;;;;3.63;2.63;;;2.20;99.90;;;;;;5002145;28;20855;-78
2022/12/04 10:43:11;;;;;;;5.80;1.58;;;2.20;99.90;;;;;;4997374;28;20195;-79
2022/12/04 10:45:38;;;;;;;1.52;1.48;;;2.20;99.90;;;;;;4987809;28;20208;-75
2022/12/04 10:48:07;;;;;;;0.50;0.40;;;2.20;99.90;;;;;;4992192;28;20211;-78
2022/12/04 10:50:34;;;;;;;3.40;2.63;;;2.20;99.90;;;;;;4986520;28;20197;-77
2022/12/04 10:53:02;;;;;;;1.25;0.90;;;2.20;99.90;;;;;;4986923;28;20212;-78
2022/12/04 10:55:31;;;;;;;4.72;4.10;;;2.20;99.90;;;;;;4986261;28;20221;-77
2022/12/04 10:57:58;;;;;;;3.72;3.53;;;2.20;99.90;;;;;;4990831;28;20200;-76
2022/12/04 11:00:27;;;;;;;3.15;3.05;;;2.10;99.90;;;;;;4980859;28;20208;-77
2022/12/04 11:02:57;;;;;;;3.10;1.80;;;2.20;99.90;;;;;;4989195;28;20285;-77
2022/12/04 11:05:28;;;;;;;0.60;0.60;;;2.20;99.90;;;;;;4992755;28;20590;-79
2022/12/04 11:07:57;;;;;;;0.50;0.45;;;2.30;99.90;;;;;;4992676;28;20184;-75
2022/12/04 11:10:33;;;;;;;0.50;0.40;;;2.40;99.90;;;;;;4998796;28;20196;-77
2022/12/04 11:13:02;;;;;;;0.50;0.40;;;2.40;99.90;;;;;;4987123;28;20330;-80
2022/12/04 11:15:30;;;;;;;2.45;2.35;;;2.40;99.90;;;;;;4993106;28;20264;-79
2022/12/04 11:18:08;;;;;;;3.97;3.70;;;2.50;99.90;;;;;;5001712;28;20263;-77
2022/12/04 11:20:35;;;;;;;1.50;1.40;;;2.50;99.90;;;;;;4992809;28;20964;-79
2022/12/04 11:23:02;;;;;;;1.98;1.88;;;2.60;99.90;;;;;;4989724;28;20305;-79
2022/12/04 11:25:36;;;;;;;2.20;2.00;;;2.70;99.90;;;;;;4996290;28;20316;-79
2022/12/04 11:28:04;;;;;;;3.63;2.65;;;2.70;99.90;;;;;;4990813;28;20268;-79
2022/12/04 11:30:34;;;;;;;4.00;3.38;;;2.80;99.90;;;;;;4991590;28;20279;-79
2022/12/04 11:33:03;;;;;;;0.50;0.43;;;2.70;99.90;;;;;;4990633;28;20240;-77
2022/12/04 11:35:31;;;;;;;0.50;0.40;;;2.60;99.90;;;;;;4990711;28;20269;-80
2022/12/04 11:38:04;;;;;;;3.75;2.70;;;2.70;99.90;;;;;;4995710;28;20570;-79
2022/12/04 11:40:33;;;;;;;11.15;1.85;;;2.60;99.90;;;;;;4992621;28;20594;-80
2022/12/04 11:43:03;;;;;;;0.50;0.40;;;2.60;99.90;;;;;;5002679;28;20301;-79
2022/12/04 11:45:30;;;;;;;1.83;1.23;;;2.60;99.90;;;;;;4986217;28;20648;-77
2022/12/04 11:48:01;;;;;;;1.08;0.82;;;2.60;99.90;;;;;;4995641;28;20202;-78
2022/12/04 11:50:39;;;;;;;2.08;1.98;;;2.60;99.90;;;;;;4995356;28;20188;-81
2022/12/04 11:53:14;;;;;;;17.10;13.82;;;2.60;99.90;;;;;;4991293;28;20280;-79
2022/12/04 11:56:05;;;;;;;1.05;0.75;;;2.60;99.90;;;;;;4989978;28;20223;-79
2022/12/04 11:58:46;;;;;;;1.25;1.15;;;2.60;99.90;;;;;;4989911;28;20287;-79
2022/12/04 12:01:36;;;;;;;0.70;0.70;;;2.50;99.90;;;;;;4997712;28;20191;-78
2022/12/04 12:04:37;;;;;;;1.33;1.23;;;2.50;99.90;;;;;;4992000;28;20272;-79
2022/12/04 12:07:20;;;;;;;3.00;2.55;;;2.60;99.90;;;;;;4992535;28;20563;-76
2022/12/04 12:09:56;;;;;;;2.90;1.17;;;2.60;99.90;;;;;;4999652;28;20278;-78
2022/12/04 12:12:35;;;;;;;0.90;0.80;;;2.70;99.90;;;;;;4999129;28;20283;-79
2022/12/04 12:15:11;;;;;;;0.60;0.50;;;2.70;99.90;;;;;;4996035;28;20234;-79
2022/12/04 12:17:45;;;;;;;1.00;0.90;;;2.70;99.90;;;;;;5003459;28;20183;-79
2022/12/04 12:20:17;;;;;;;0.50;0.40;;;2.60;99.90;;;;;;4996932;28;20193;-79
2022/12/04 12:22:56;;;;;;;0.50;0.40;;;2.70;99.90;;;;;;5011148;28;20282;-78
2022/12/04 12:25:30;;;;;;;1.15;1.08;;;2.70;99.90;;;;;;5004396;28;20238;-75
2022/12/04 12:28:08;;;;;;;0.60;0.50;;;2.70;99.90;;;;;;4984303;28;20196;-79
2022/12/04 12:30:44;;;;;;;0.50;0.40;;;2.70;99.90;;;;;;4999184;28;20199;-79
2022/12/04 12:33:18;;;;;;;0.90;0.90;;;2.80;99.90;;;;;;4981794;28;20205;-79
2022/12/04 12:35:54;;;;;;;0.50;0.40;;;2.80;99.90;;;;;;4972963;28;20224;-79
2022/12/04 12:38:26;;;;;;;1.55;1.45;;;2.90;99.90;;;;;;4974100;28;20272;-80
2022/12/04 12:40:57;;;;;;;0.50;0.50;;;2.80;99.90;;;;;;4999813;28;20207;-79
2022/12/04 12:43:29;;;;;;;3.00;2.70;;;2.80;99.90;;;;;;5013115;28;20287;-78
2022/12/04 12:46:01;;;;;;;12.00;7.55;;;2.90;99.90;;;;;;5000975;28;20219;-79
2022/12/04 12:48:35;;;;;;;0.60;0.60;;;2.90;99.90;;;;;;4995344;28;20289;-76
2022/12/04 12:51:05;;;;;;;1.70;1.63;;;2.90;99.90;;;;;;4996454;28;20196;-77
2022/12/04 12:53:37;;;;;;;3.90;3.70;;;2.80;99.90;;;;;;5000977;28;20212;-79
2022/12/04 12:56:06;;;;;;;3.80;3.30;;;2.80;99.90;;;;;;4997702;28;20754;-80
2022/12/04 12:58:38;;;;;;;0.50;0.50;;;2.90;99.90;;;;;;4994554;28;20284;-79
2022/12/04 13:01:13;;;;;;;5.28;1.67;;;2.90;99.90;;;;;;4994698;28;20254;-79
2022/12/04 13:03:46;;;;;;;1.90;1.48;;;2.80;99.90;;;;;;5003532;28;20198;-79
2022/12/04 13:06:16;;;;;;;3.30;2.92;;;2.80;99.90;;;;;;4992523;28;20314;-78
2022/12/04 13:08:51;;;;;;;5.35;5.05;;;2.80;99.90;;;;;;4994052;28;20758;-79
2022/12/04 13:11:20;;;;;;;0.77;0.77;;;2.80;99.90;;;;;;4990528;28;20227;-80
2022/12/04 13:13:51;;;;;;;0.50;0.40;;;2.80;99.90;;;;;;5048932;22;20304;-76
2022/12/04 13:16:22;;;;;;;5.72;5.32;;;2.80;99.90;;;;;;5062141;28;20194;-76
2022/12/04 13:18:55;;;;;;;1.30;0.77;;;2.80;99.90;;;;;;5064332;28;20200;-77
2022/12/04 13:21:31;;;;;;;2.90;2.75;;;2.80;99.90;;;;;;5071021;28;20184;-76